sensor_id;sensor_type;location;lat;lon;timestamp;pressure;altitude;pressure_sealevel;temperature;humidity
71774;BME280;59607;52.130;5.430;2023-05-20T00:01:28;102629.34;;;11.73;79.61
71774;BME280;59607;52.130;5.430;2023-05-20T00:03:55;102635.72;;;11.70;79.91
71774;BME280;59607;52.130;5.430;2023-05-20T00:06:34;102628.88;;;11.68;79.36
71774;BME280;59607;52.130;5.430;2023-05-20T00:09:06;102629.13;;;11.65;79.54
71774;BME280;59607;52.130;5.430;2023-05-20T00:11:36;102622.22;;;11.64;80.00
71774;BME280;59607;52.130;5.430;2023-05-20T00:14:03;102631.09;;;11.63;80.12
71774;BME280;59607;52.130;5.430;2023-05-20T00:16:47;102629.66;;;11.58;80.28
71774;BME280;59607;52.130;5.430;2023-05-20T00:19:16;102631.72;;;11.55;80.92
71774;BME280;59607;52.130;5.430;2023-05-20T00:21:43;102634.44;;;11.53;80.58
71774;BME280;59607;52.130;5.430;2023-05-20T00:24:15;102634.69;;;11.50;80.72
71774;BME280;59607;52.130;5.430;2023-05-20T00:26:46;102639.13;;;11.50;80.55
71774;BME280;59607;52.130;5.430;2023-05-20T00:29:12;102635.78;;;11.47;80.87
71774;BME280;59607;52.130;5.430;2023-05-20T00:31:44;102633.16;;;11.47;80.78
71774;BME280;59607;52.130;5.430;2023-05-20T00:34:10;102638.53;;;11.46;80.89
71774;BME280;59607;52.130;5.430;2023-05-20T00:36:43;102630.66;;;11.46;81.20
71774;BME280;59607;52.130;5.430;2023-05-20T00:39:12;102631.75;;;11.43;81.85
71774;BME280;59607;52.130;5.430;2023-05-20T00:41:38;102625.78;;;11.41;81.22
71774;BME280;59607;52.130;5.430;2023-05-20T00:44:10;102627.44;;;11.42;81.71
71774;BME280;59607;52.130;5.430;2023-05-20T00:46:37;102620.63;;;11.40;82.06
71774;BME280;59607;52.130;5.430;2023-05-20T00:49:04;102626.84;;;11.39;81.92
71774;BME280;59607;52.130;5.430;2023-05-20T00:51:35;102620.63;;;11.40;82.09
71774;BME280;59607;52.130;5.430;2023-05-20T00:54:02;102624.13;;;11.40;82.59
71774;BME280;59607;52.130;5.430;2023-05-20T00:56:38;102622.19;;;11.42;82.10
71774;BME280;59607;52.130;5.430;2023-05-20T00:59:04;102625.66;;;11.43;82.03
71774;BME280;59607;52.130;5.430;2023-05-20T01:01:31;102617.16;;;11.39;82.10
71774;BME280;59607;52.130;5.430;2023-05-20T01:04:13;102612.16;;;11.36;82.74
71774;BME280;59607;52.130;5.430;2023-05-20T01:06:45;102609.66;;;11.34;83.04
71774;BME280;59607;52.130;5.430;2023-05-20T01:09:13;102612.53;;;11.31;83.31
71774;BME280;59607;52.130;5.430;2023-05-20T01:12:15;102608.38;;;11.29;83.39
71774;BME280;59607;52.130;5.430;2023-05-20T01:14:51;102610.28;;;11.27;83.53
71774;BME280;59607;52.130;5.430;2023-05-20T01:17:32;102606.00;;;11.26;83.47
71774;BME280;59607;52.130;5.430;2023-05-20T01:20:07;102606.22;;;11.22;84.12
71774;BME280;59607;52.130;5.430;2023-05-20T01:22:53;102603.03;;;11.19;84.36
71774;BME280;59607;52.130;5.430;2023-05-20T01:25:21;102592.78;;;11.16;84.54
71774;BME280;59607;52.130;5.430;2023-05-20T01:27:48;102593.00;;;11.13;85.38
71774;BME280;59607;52.130;5.430;2023-05-20T01:30:20;102591.31;;;11.11;85.86
71774;BME280;59607;52.130;5.430;2023-05-20T01:32:58;102593.34;;;11.08;85.75
71774;BME280;59607;52.130;5.430;2023-05-20T01:35:27;102585.72;;;11.05;86.52
71774;BME280;59607;52.130;5.430;2023-05-20T01:38:04;102587.53;;;11.04;86.48
71774;BME280;59607;52.130;5.430;2023-05-20T01:40:33;102578.94;;;11.02;86.22
71774;BME280;59607;52.130;5.430;2023-05-20T01:43:04;102575.59;;;11.00;86.20
71774;BME280;59607;52.130;5.430;2023-05-20T01:45:31;102581.81;;;10.99;86.58
71774;BME280;59607;52.130;5.430;2023-05-20T01:48:02;102575.84;;;10.97;87.26
71774;BME280;59607;52.130;5.430;2023-05-20T01:50:28;102572.63;;;10.93;87.38
71774;BME280;59607;52.130;5.430;2023-05-20T01:52:55;102569.19;;;10.93;87.22
71774;BME280;59607;52.130;5.430;2023-05-20T01:55:21;102575.38;;;10.92;87.64
71774;BME280;59607;52.130;5.430;2023-05-20T01:57:48;102577.28;;;10.90;87.89
71774;BME280;59607;52.130;5.430;2023-05-20T02:00:15;102576.56;;;10.88;88.59
71774;BME280;59607;52.130;5.430;2023-05-20T02:02:41;102582.06;;;10.84;88.98
71774;BME280;59607;52.130;5.430;2023-05-20T02:05:17;102574.31;;;10.83;89.22
71774;BME280;59607;52.130;5.430;2023-05-20T02:07:44;102571.94;;;10.80;89.52
71774;BME280;59607;52.130;5.430;2023-05-20T02:10:10;102573.84;;;10.78;89.12
71774;BME280;59607;52.130;5.430;2023-05-20T02:12:42;102568.59;;;10.78;89.04
71774;BME280;59607;52.130;5.430;2023-05-20T02:15:08;102569.69;;;10.75;89.41
71774;BME280;59607;52.130;5.430;2023-05-20T02:17:40;102570.72;;;10.72;89.66
71774;BME280;59607;52.130;5.430;2023-05-20T02:20:10;102574.44;;;10.70;90.37
71774;BME280;59607;52.130;5.430;2023-05-20T02:22:37;102575.28;;;10.70;89.96
71774;BME280;59607;52.130;5.430;2023-05-20T02:25:16;102577.31;;;10.67;90.22
71774;BME280;59607;52.130;5.430;2023-05-20T02:27:50;102578.38;;;10.64;90.74
71774;BME280;59607;52.130;5.430;2023-05-20T02:30:16;102574.22;;;10.61;91.39
71774;BME280;59607;52.130;5.430;2023-05-20T02:32:43;102581.22;;;10.61;91.76
71774;BME280;59607;52.130;5.430;2023-05-20T02:35:09;102577.19;;;10.57;92.02
71774;BME280;59607;52.130;5.430;2023-05-20T02:37:39;102572.91;;;10.56;92.38
71774;BME280;59607;52.130;5.430;2023-05-20T02:40:08;102567.06;;;10.52;92.25
71774;BME280;59607;52.130;5.430;2023-05-20T02:42:39;102574.19;;;10.50;92.80
71774;BME280;59607;52.130;5.430;2023-05-20T02:45:08;102563.94;;;10.47;93.15
71774;BME280;59607;52.130;5.430;2023-05-20T02:47:50;102561.53;;;10.44;93.23
71774;BME280;59607;52.130;5.430;2023-05-20T02:50:30;102552.25;;;10.40;94.11
71774;BME280;59607;52.130;5.430;2023-05-20T02:52:59;102553.31;;;10.37;94.16
71774;BME280;59607;52.130;5.430;2023-05-20T02:55:26;102549.84;;;10.36;93.71
71774;BME280;59607;52.130;5.430;2023-05-20T02:57:53;102556.03;;;10.35;94.60
71774;BME280;59607;52.130;5.430;2023-05-20T03:00:28;102549.97;;;10.35;94.41
71774;BME280;59607;52.130;5.430;2023-05-20T03:02:56;102552.13;;;10.30;95.22
71774;BME280;59607;52.130;5.430;2023-05-20T03:05:32;102555.69;;;10.29;95.33
71774;BME280;59607;52.130;5.430;2023-05-20T03:07:59;102554.25;;;10.24;95.29
71774;BME280;59607;52.130;5.430;2023-05-20T03:10:40;102557.00;;;10.23;95.64
71774;BME280;59607;52.130;5.430;2023-05-20T03:13:08;102562.34;;;10.21;96.07
71774;BME280;59607;52.130;5.430;2023-05-20T03:15:37;102567.59;;;10.21;96.04
71774;BME280;59607;52.130;5.430;2023-05-20T03:18:04;102558.03;;;10.20;96.32
71774;BME280;59607;52.130;5.430;2023-05-20T03:20:34;102560.66;;;10.20;96.73
71774;BME280;59607;52.130;5.430;2023-05-20T03:23:07;102568.53;;;10.20;96.86
71774;BME280;59607;52.130;5.430;2023-05-20T03:25:38;102560.78;;;10.19;96.97
71774;BME280;59607;52.130;5.430;2023-05-20T03:28:08;102555.66;;;10.17;96.59
71774;BME280;59607;52.130;5.430;2023-05-20T03:30:34;102565.34;;;10.17;97.33
71774;BME280;59607;52.130;5.430;2023-05-20T03:33:22;102565.09;;;10.20;97.13
71774;BME280;59607;52.130;5.430;2023-05-20T03:35:54;102567.97;;;10.17;97.69
71774;BME280;59607;52.130;5.430;2023-05-20T03:38:21;102568.78;;;10.17;97.85
71774;BME280;59607;52.130;5.430;2023-05-20T03:40:53;102568.88;;;10.16;98.52
71774;BME280;59607;52.130;5.430;2023-05-20T03:43:19;102566.38;;;10.14;98.76
71774;BME280;59607;52.130;5.430;2023-05-20T03:45:54;102565.47;;;10.15;98.17
71774;BME280;59607;52.130;5.430;2023-05-20T03:48:21;102560.91;;;10.17;98.09
71774;BME280;59607;52.130;5.430;2023-05-20T03:50:52;102553.78;;;10.19;98.50
71774;BME280;59607;52.130;5.430;2023-05-20T03:53:19;102566.03;;;10.19;98.60
71774;BME280;59607;52.130;5.430;2023-05-20T03:55:46;102563.28;;;10.20;98.61
71774;BME280;59607;52.130;5.430;2023-05-20T03:58:13;102555.91;;;10.25;98.62
71774;BME280;59607;52.130;5.430;2023-05-20T04:00:43;102559.16;;;10.29;98.68
71774;BME280;59607;52.130;5.430;2023-05-20T04:03:10;102562.50;;;10.31;98.00
71774;BME280;59607;52.130;5.430;2023-05-20T04:05:39;102558.06;;;10.32;98.63
71774;BME280;59607;52.130;5.430;2023-05-20T04:08:06;102557.69;;;10.36;98.00
71774;BME280;59607;52.130;5.430;2023-05-20T04:10:35;102554.88;;;10.40;98.47
71774;BME280;59607;52.130;5.430;2023-05-20T04:13:04;102561.22;;;10.48;97.55
71774;BME280;59607;52.130;5.430;2023-05-20T04:15:34;102559.78;;;10.56;97.18
71774;BME280;59607;52.130;5.430;2023-05-20T04:18:01;102556.69;;;10.73;95.58
71774;BME280;59607;52.130;5.430;2023-05-20T04:20:34;102551.84;;;11.02;94.83
71774;BME280;59607;52.130;5.430;2023-05-20T04:23:01;102561.34;;;11.26;93.33
71774;BME280;59607;52.130;5.430;2023-05-20T04:25:30;102551.22;;;11.96;89.98
71774;BME280;59607;52.130;5.430;2023-05-20T04:28:04;102559.81;;;13.02;83.91
71774;BME280;59607;52.130;5.430;2023-05-20T04:30:35;102544.41;;;13.87;77.01
71774;BME280;59607;52.130;5.430;2023-05-20T04:33:01;102544.88;;;14.48;73.49
71774;BME280;59607;52.130;5.430;2023-05-20T04:35:29;102546.97;;;15.01;70.05
71774;BME280;59607;52.130;5.430;2023-05-20T04:38:04;102550.59;;;15.18;68.21
71774;BME280;59607;52.130;5.430;2023-05-20T04:40:31;102546.97;;;15.37;67.44
71774;BME280;59607;52.130;5.430;2023-05-20T04:42:58;102547.31;;;16.06;64.37
71774;BME280;59607;52.130;5.430;2023-05-20T04:45:29;102552.84;;;16.29;63.41
71774;BME280;59607;52.130;5.430;2023-05-20T04:47:55;102554.84;;;16.70;61.85
71774;BME280;59607;52.130;5.430;2023-05-20T04:50:22;102551.47;;;17.20;59.97
71774;BME280;59607;52.130;5.430;2023-05-20T04:52:52;102554.44;;;17.58;58.31
71774;BME280;59607;52.130;5.430;2023-05-20T04:55:19;102562.72;;;17.63;58.20
71774;BME280;59607;52.130;5.430;2023-05-20T04:57:49;102551.22;;;18.05;56.58
71774;BME280;59607;52.130;5.430;2023-05-20T05:00:19;102556.41;;;17.81;56.79
71774;BME280;59607;52.130;5.430;2023-05-20T05:02:46;102554.56;;;17.90;56.60
71774;BME280;59607;52.130;5.430;2023-05-20T05:05:25;102555.50;;;18.06;56.27
71774;BME280;59607;52.130;5.430;2023-05-20T05:07:55;102545.91;;;18.13;55.49
71774;BME280;59607;52.130;5.430;2023-05-20T05:10:24;102545.72;;;18.23;55.21
71774;BME280;59607;52.130;5.430;2023-05-20T05:12:50;102544.50;;;18.34;54.89
71774;BME280;59607;52.130;5.430;2023-05-20T05:15:25;102537.78;;;18.46;54.27
71774;BME280;59607;52.130;5.430;2023-05-20T05:17:52;102538.53;;;18.64;54.39
71774;BME280;59607;52.130;5.430;2023-05-20T05:20:20;102533.09;;;18.80;53.63
71774;BME280;59607;52.130;5.430;2023-05-20T05:22:49;102539.44;;;19.03;53.14
71774;BME280;59607;52.130;5.430;2023-05-20T05:25:16;102540.44;;;19.64;51.54
71774;BME280;59607;52.130;5.430;2023-05-20T05:27:45;102535.13;;;19.94;51.02
71774;BME280;59607;52.130;5.430;2023-05-20T05:30:18;102527.44;;;19.69;51.21
71774;BME280;59607;52.130;5.430;2023-05-20T05:32:50;102534.59;;;19.83;50.97
71774;BME280;59607;52.130;5.430;2023-05-20T05:35:16;102529.41;;;20.42;49.31
71774;BME280;59607;52.130;5.430;2023-05-20T05:37:43;102523.94;;;20.29;49.50
71774;BME280;59607;52.130;5.430;2023-05-20T05:40:11;102520.25;;;20.30;48.99
71774;BME280;59607;52.130;5.430;2023-05-20T05:42:40;102528.34;;;19.91;50.03
71774;BME280;59607;52.130;5.430;2023-05-20T05:45:07;102522.81;;;20.38;49.82
71774;BME280;59607;52.130;5.430;2023-05-20T05:47:38;102521.41;;;20.79;48.44
71774;BME280;59607;52.130;5.430;2023-05-20T05:50:04;102522.84;;;21.04;47.16
71774;BME280;59607;52.130;5.430;2023-05-20T05:52:31;102522.25;;;20.43;48.81
71774;BME280;59607;52.130;5.430;2023-05-20T05:54:57;102522.41;;;20.78;48.55
71774;BME280;59607;52.130;5.430;2023-05-20T05:57:29;102516.63;;;21.47;47.18
71774;BME280;59607;52.130;5.430;2023-05-20T05:59:56;102522.16;;;21.45;46.59
71774;BME280;59607;52.130;5.430;2023-05-20T06:02:26;102516.88;;;21.52;46.31
71774;BME280;59607;52.130;5.430;2023-05-20T06:04:53;102518.22;;;21.41;46.52
71774;BME280;59607;52.130;5.430;2023-05-20T06:07:20;102515.25;;;21.58;46.57
71774;BME280;59607;52.130;5.430;2023-05-20T06:09:48;102513.78;;;20.98;46.83
71774;BME280;59607;52.130;5.430;2023-05-20T06:12:17;102516.50;;;20.24;48.94
71774;BME280;59607;52.130;5.430;2023-05-20T06:14:43;102521.88;;;19.40;51.11
71774;BME280;59607;52.130;5.430;2023-05-20T06:17:12;102531.91;;;18.59;52.53
71774;BME280;59607;52.130;5.430;2023-05-20T06:19:41;102528.03;;;17.82;55.01
71774;BME280;59607;52.130;5.430;2023-05-20T06:22:07;102527.44;;;17.55;56.37
71774;BME280;59607;52.130;5.430;2023-05-20T06:24:37;102531.09;;;17.20;57.42
71774;BME280;59607;52.130;5.430;2023-05-20T06:27:07;102534.56;;;17.21;57.86
71774;BME280;59607;52.130;5.430;2023-05-20T06:29:34;102535.81;;;16.83;58.62
71774;BME280;59607;52.130;5.430;2023-05-20T06:32:04;102534.59;;;16.52;59.80
71774;BME280;59607;52.130;5.430;2023-05-20T06:34:38;102531.63;;;16.21;60.61
71774;BME280;59607;52.130;5.430;2023-05-20T06:37:07;102532.16;;;16.24;61.07
71774;BME280;59607;52.130;5.430;2023-05-20T06:39:36;102534.53;;;16.36;61.20
71774;BME280;59607;52.130;5.430;2023-05-20T06:42:03;102528.59;;;16.42;60.32
71774;BME280;59607;52.130;5.430;2023-05-20T06:44:31;102525.38;;;16.22;60.58
71774;BME280;59607;52.130;5.430;2023-05-20T06:47:00;102532.38;;;16.04;61.87
71774;BME280;59607;52.130;5.430;2023-05-20T06:49:26;102522.72;;;16.22;61.89
71774;BME280;59607;52.130;5.430;2023-05-20T06:51:59;102523.06;;;16.27;61.93
71774;BME280;59607;52.130;5.430;2023-05-20T06:54:25;102518.16;;;16.40;61.55
71774;BME280;59607;52.130;5.430;2023-05-20T06:56:52;102513.50;;;16.34;60.90
71774;BME280;59607;52.130;5.430;2023-05-20T06:59:24;102510.66;;;16.27;61.55
71774;BME280;59607;52.130;5.430;2023-05-20T07:01:50;102513.34;;;16.36;61.16
71774;BME280;59607;52.130;5.430;2023-05-20T07:04:20;102508.88;;;16.36;60.99
71774;BME280;59607;52.130;5.430;2023-05-20T07:06:46;102500.47;;;16.49;60.77
71774;BME280;59607;52.130;5.430;2023-05-20T07:09:13;102504.13;;;16.57;61.85
71774;BME280;59607;52.130;5.430;2023-05-20T07:11:46;102510.44;;;16.72;60.19
71774;BME280;59607;52.130;5.430;2023-05-20T07:14:20;102506.50;;;16.76;59.96
71774;BME280;59607;52.130;5.430;2023-05-20T07:16:47;102510.13;;;16.84;59.45
71774;BME280;59607;52.130;5.430;2023-05-20T07:19:16;102493.41;;;17.00;59.47
71774;BME280;59607;52.130;5.430;2023-05-20T07:21:43;102491.81;;;17.24;59.18
71774;BME280;59607;52.130;5.430;2023-05-20T07:24:09;102491.09;;;17.55;58.38
71774;BME280;59607;52.130;5.430;2023-05-20T07:26:39;102492.63;;;17.49;57.84
71774;BME280;59607;52.130;5.430;2023-05-20T07:29:06;102489.63;;;17.44;57.88
71774;BME280;59607;52.130;5.430;2023-05-20T07:31:43;102486.63;;;17.56;57.18
71774;BME280;59607;52.130;5.430;2023-05-20T07:34:09;102483.97;;;17.64;57.22
71774;BME280;59607;52.130;5.430;2023-05-20T07:36:43;102481.44;;;17.79;55.71
71774;BME280;59607;52.130;5.430;2023-05-20T07:39:10;102484.91;;;17.71;56.26
71774;BME280;59607;52.130;5.430;2023-05-20T07:41:43;102479.22;;;17.91;54.89
71774;BME280;59607;52.130;5.430;2023-05-20T07:44:12;102479.75;;;17.86;53.70
71774;BME280;59607;52.130;5.430;2023-05-20T07:46:39;102481.38;;;17.96;54.14
71774;BME280;59607;52.130;5.430;2023-05-20T07:49:12;102478.38;;;17.99;54.21
71774;BME280;59607;52.130;5.430;2023-05-20T07:51:38;102479.06;;;17.93;53.32
71774;BME280;59607;52.130;5.430;2023-05-20T07:54:30;102461.59;;;18.07;54.25
71774;BME280;59607;52.130;5.430;2023-05-20T07:57:00;102469.16;;;18.27;52.57
71774;BME280;59607;52.130;5.430;2023-05-20T07:59:27;102461.25;;;18.10;51.88
71774;BME280;59607;52.130;5.430;2023-05-20T08:01:58;102453.09;;;18.11;52.92
71774;BME280;59607;52.130;5.430;2023-05-20T08:04:25;102453.44;;;18.17;51.53
71774;BME280;59607;52.130;5.430;2023-05-20T08:06:56;102455.69;;;18.28;51.46
71774;BME280;59607;52.130;5.430;2023-05-20T08:09:26;102443.50;;;18.42;50.33
71774;BME280;59607;52.130;5.430;2023-05-20T08:11:52;102441.59;;;18.51;50.82
71774;BME280;59607;52.130;5.430;2023-05-20T08:14:25;102447.28;;;18.48;48.91
71774;BME280;59607;52.130;5.430;2023-05-20T08:16:52;102455.25;;;18.48;49.15
71774;BME280;59607;52.130;5.430;2023-05-20T08:19:21;102443.47;;;18.50;48.84
71774;BME280;59607;52.130;5.430;2023-05-20T08:21:48;102442.00;;;18.40;49.59
71774;BME280;59607;52.130;5.430;2023-05-20T08:24:15;102449.00;;;18.64;48.10
71774;BME280;59607;52.130;5.430;2023-05-20T08:26:44;102455.44;;;18.70;47.91
71774;BME280;59607;52.130;5.430;2023-05-20T08:29:20;102448.03;;;18.80;47.91
71774;BME280;59607;52.130;5.430;2023-05-20T08:31:58;102448.69;;;18.82;46.90
71774;BME280;59607;52.130;5.430;2023-05-20T08:34:28;102438.97;;;18.74;47.43
71774;BME280;59607;52.130;5.430;2023-05-20T08:37:04;102438.91;;;18.98;47.38
71774;BME280;59607;52.130;5.430;2023-05-20T08:39:33;102439.94;;;19.20;46.50
71774;BME280;59607;52.130;5.430;2023-05-20T08:41:59;102424.63;;;18.99;45.88
71774;BME280;59607;52.130;5.430;2023-05-20T08:44:27;102430.53;;;19.09;46.45
71774;BME280;59607;52.130;5.430;2023-05-20T08:47:02;102434.16;;;19.17;45.56
71774;BME280;59607;52.130;5.430;2023-05-20T08:49:30;102425.25;;;19.01;46.14
71774;BME280;59607;52.130;5.430;2023-05-20T08:52:07;102427.91;;;19.24;45.69
71774;BME280;59607;52.130;5.430;2023-05-20T08:54:48;102421.22;;;19.14;45.81
71774;BME280;59607;52.130;5.430;2023-05-20T08:57:14;102410.09;;;18.86;45.26
71774;BME280;59607;52.130;5.430;2023-05-20T08:59:45;102414.44;;;18.87;45.71
71774;BME280;59607;52.130;5.430;2023-05-20T09:02:17;102411.47;;;18.82;45.75
71774;BME280;59607;52.130;5.430;2023-05-20T09:04:47;102420.97;;;19.00;45.64
71774;BME280;59607;52.130;5.430;2023-05-20T09:07:13;102402.88;;;19.34;44.98
71774;BME280;59607;52.130;5.430;2023-05-20T09:09:40;102407.47;;;19.55;44.90
71774;BME280;59607;52.130;5.430;2023-05-20T09:12:09;102402.88;;;19.64;45.09
71774;BME280;59607;52.130;5.430;2023-05-20T09:14:39;102414.41;;;19.87;44.43
71774;BME280;59607;52.130;5.430;2023-05-20T09:17:06;102403.25;;;19.46;44.04
71774;BME280;59607;52.130;5.430;2023-05-20T09:19:36;102416.75;;;19.44;44.69
71774;BME280;59607;52.130;5.430;2023-05-20T09:22:06;102410.13;;;19.55;44.12
71774;BME280;59607;52.130;5.430;2023-05-20T09:24:36;102412.13;;;19.23;43.89
71774;BME280;59607;52.130;5.430;2023-05-20T09:27:09;102402.41;;;19.15;44.05
71774;BME280;59607;52.130;5.430;2023-05-20T09:29:36;102405.25;;;19.14;44.67
71774;BME280;59607;52.130;5.430;2023-05-20T09:32:03;102393.97;;;19.27;44.59
71774;BME280;59607;52.130;5.430;2023-05-20T09:34:32;102397.19;;;19.22;43.81
71774;BME280;59607;52.130;5.430;2023-05-20T09:37:01;102390.66;;;19.24;43.77
71774;BME280;59607;52.130;5.430;2023-05-20T09:39:38;102389.56;;;19.64;43.36
71774;BME280;59607;52.130;5.430;2023-05-20T09:42:20;102390.59;;;19.48;43.40
71774;BME280;59607;52.130;5.430;2023-05-20T09:45:14;102389.38;;;19.35;43.00
71774;BME280;59607;52.130;5.430;2023-05-20T09:47:42;102393.59;;;19.60;43.22
71774;BME280;59607;52.130;5.430;2023-05-20T09:50:18;102388.63;;;19.72;42.99
71774;BME280;59607;52.130;5.430;2023-05-20T09:52:50;102386.06;;;19.64;43.33
71774;BME280;59607;52.130;5.430;2023-05-20T09:55:23;102381.34;;;19.81;42.57
71774;BME280;59607;52.130;5.430;2023-05-20T09:57:52;102381.03;;;19.69;43.23
71774;BME280;59607;52.130;5.430;2023-05-20T10:00:22;102384.50;;;19.69;43.74
71774;BME280;59607;52.130;5.430;2023-05-20T10:02:50;102377.44;;;19.77;43.14
71774;BME280;59607;52.130;5.430;2023-05-20T10:05:32;102380.28;;;19.75;42.58
71774;BME280;59607;52.130;5.430;2023-05-20T10:17:09;102358.41;;;20.17;42.65
71774;BME280;59607;52.130;5.430;2023-05-20T10:19:39;102358.25;;;20.03;42.76
71774;BME280;59607;52.130;5.430;2023-05-20T10:22:10;102362.00;;;20.31;42.22
71774;BME280;59607;52.130;5.430;2023-05-20T10:24:43;102353.91;;;20.17;42.38
71774;BME280;59607;52.130;5.430;2023-05-20T10:27:14;102344.31;;;20.45;42.67
71774;BME280;59607;52.130;5.430;2023-05-20T10:29:54;102351.00;;;20.34;42.67
71774;BME280;59607;52.130;5.430;2023-05-20T10:32:31;102347.25;;;20.28;42.30
71774;BME280;59607;52.130;5.430;2023-05-20T10:35:07;102346.13;;;20.16;43.32
71774;BME280;59607;52.130;5.430;2023-05-20T10:37:45;102333.19;;;19.97;42.66
71774;BME280;59607;52.130;5.430;2023-05-20T10:40:18;102326.06;;;20.20;42.15
71774;BME280;59607;52.130;5.430;2023-05-20T10:42:47;102333.19;;;20.13;43.41
71774;BME280;59607;52.130;5.430;2023-05-20T10:45:28;102329.41;;;20.07;43.58
71774;BME280;59607;52.130;5.430;2023-05-20T10:47:56;102326.31;;;20.03;42.44
71774;BME280;59607;52.130;5.430;2023-05-20T10:50:36;102334.50;;;20.24;42.19
71774;BME280;59607;52.130;5.430;2023-05-20T10:53:11;102334.13;;;20.55;42.32
71774;BME280;59607;52.130;5.430;2023-05-20T10:55:57;102331.00;;;20.23;42.71
71774;BME280;59607;52.130;5.430;2023-05-20T10:58:35;102331.53;;;20.62;41.81
71774;BME280;59607;52.130;5.430;2023-05-20T11:01:02;102320.22;;;20.53;42.06
71774;BME280;59607;52.130;5.430;2023-05-20T11:03:29;102326.56;;;20.88;41.51
71774;BME280;59607;52.130;5.430;2023-05-20T11:05:59;102309.88;;;21.07;42.28
71774;BME280;59607;52.130;5.430;2023-05-20T11:08:30;102307.63;;;21.53;41.48
71774;BME280;59607;52.130;5.430;2023-05-20T11:10:57;102298.97;;;21.44;42.05
71774;BME280;59607;52.130;5.430;2023-05-20T11:13:27;102297.16;;;21.52;40.84
71774;BME280;59607;52.130;5.430;2023-05-20T11:16:00;102302.22;;;21.40;41.64
71774;BME280;59607;52.130;5.430;2023-05-20T11:18:30;102303.75;;;21.63;40.90
71774;BME280;59607;52.130;5.430;2023-05-20T11:21:00;102295.72;;;21.56;41.39
71774;BME280;59607;52.130;5.430;2023-05-20T11:23:29;102298.84;;;21.73;40.36
71774;BME280;59607;52.130;5.430;2023-05-20T11:25:56;102302.66;;;21.43;40.66
71774;BME280;59607;52.130;5.430;2023-05-20T11:28:34;102305.78;;;21.61;41.13
71774;BME280;59607;52.130;5.430;2023-05-20T11:31:03;102292.53;;;21.88;40.62
71774;BME280;59607;52.130;5.430;2023-05-20T11:33:34;102299.13;;;21.99;39.87
71774;BME280;59607;52.130;5.430;2023-05-20T11:36:01;102291.91;;;21.23;40.71
71774;BME280;59607;52.130;5.430;2023-05-20T11:38:40;102305.81;;;20.83;41.71
71774;BME280;59607;52.130;5.430;2023-05-20T11:41:07;102290.88;;;20.53;42.83
71774;BME280;59607;52.130;5.430;2023-05-20T11:43:33;102282.34;;;20.93;41.61
71774;BME280;59607;52.130;5.430;2023-05-20T11:46:03;102276.78;;;21.44;41.39
71774;BME280;59607;52.130;5.430;2023-05-20T11:48:30;102288.34;;;21.65;40.55
71774;BME280;59607;52.130;5.430;2023-05-20T11:51:00;102282.38;;;21.49;39.77
71774;BME280;59607;52.130;5.430;2023-05-20T11:53:29;102267.97;;;21.43;41.49
71774;BME280;59607;52.130;5.430;2023-05-20T11:55:59;102280.91;;;21.47;41.19
71774;BME280;59607;52.130;5.430;2023-05-20T11:58:30;102272.25;;;21.38;40.92
71774;BME280;59607;52.130;5.430;2023-05-20T12:00:58;102268.41;;;21.61;40.92
71774;BME280;59607;52.130;5.430;2023-05-20T12:03:51;102257.41;;;21.91;39.90
71774;BME280;59607;52.130;5.430;2023-05-20T12:06:18;102259.44;;;22.16;39.49
71774;BME280;59607;52.130;5.430;2023-05-20T12:08:54;102248.16;;;22.00;40.44
71774;BME280;59607;52.130;5.430;2023-05-20T12:11:20;102249.59;;;22.16;39.83
71774;BME280;59607;52.130;5.430;2023-05-20T12:13:52;102249.75;;;22.42;40.13
71774;BME280;59607;52.130;5.430;2023-05-20T12:16:19;102239.94;;;22.09;39.48
71774;BME280;59607;52.130;5.430;2023-05-20T12:18:46;102241.16;;;22.26;40.60
71774;BME280;59607;52.130;5.430;2023-05-20T12:21:13;102251.44;;;22.09;40.28
71774;BME280;59607;52.130;5.430;2023-05-20T12:23:43;102252.06;;;21.84;40.51
71774;BME280;59607;52.130;5.430;2023-05-20T12:26:10;102248.44;;;21.43;40.88
71774;BME280;59607;52.130;5.430;2023-05-20T12:28:37;102241.59;;;21.20;41.68
71774;BME280;59607;52.130;5.430;2023-05-20T12:31:05;102246.94;;;21.13;41.33
71774;BME280;59607;52.130;5.430;2023-05-20T12:33:32;102242.56;;;21.05;41.83
71774;BME280;59607;52.130;5.430;2023-05-20T12:35:59;102248.81;;;21.33;41.55
71774;BME280;59607;52.130;5.430;2023-05-20T12:38:45;102248.91;;;21.60;40.48
71774;BME280;59607;52.130;5.430;2023-05-20T12:41:16;102248.91;;;21.60;40.90
71774;BME280;59607;52.130;5.430;2023-05-20T12:43:43;102244.16;;;21.49;41.20
71774;BME280;59607;52.130;5.430;2023-05-20T12:46:14;102244.59;;;21.52;40.74
71774;BME280;59607;52.130;5.430;2023-05-20T12:48:41;102247.06;;;21.54;41.30
71774;BME280;59607;52.130;5.430;2023-05-20T12:51:10;102240.09;;;21.66;41.11
71774;BME280;59607;52.130;5.430;2023-05-20T12:53:43;102241.53;;;21.76;40.83
71774;BME280;59607;52.130;5.430;2023-05-20T12:56:10;102228.22;;;22.23;39.93
71774;BME280;59607;52.130;5.430;2023-05-20T12:58:37;102230.69;;;22.18;40.53
71774;BME280;59607;52.130;5.430;2023-05-20T13:01:06;102224.53;;;22.11;40.13
71774;BME280;59607;52.130;5.430;2023-05-20T13:03:33;102228.03;;;21.98;40.14
71774;BME280;59607;52.130;5.430;2023-05-20T13:06:06;102226.78;;;22.00;40.02
71774;BME280;59607;52.130;5.430;2023-05-20T13:08:33;102232.34;;;21.78;40.59
71774;BME280;59607;52.130;5.430;2023-05-20T13:11:08;102228.44;;;21.88;41.47
71774;BME280;59607;52.130;5.430;2023-05-20T13:13:35;102235.63;;;21.94;40.57
71774;BME280;59607;52.130;5.430;2023-05-20T13:16:02;102227.41;;;21.89;40.95